sensor_id;sensor_type;location;lat;lon;timestamp;P1;durP1;ratioP1;P2;durP2;ratioP2
23119;SDS011;11729;50.836;4.330;2023-05-07T00:02:07;14.82;;;7.28;;
23119;SDS011;11729;50.836;4.330;2023-05-07T00:04:33;14.23;;;6.97;;
23119;SDS011;11729;50.836;4.330;2023-05-07T00:07:02;11.50;;;6.50;;
23119;SDS011;11729;50.836;4.330;2023-05-07T00:09:28;14.13;;;7.00;;
23119;SDS011;11729;50.836;4.330;2023-05-07T00:11:54;11.80;;;7.00;;
23119;SDS011;11729;50.836;4.330;2023-05-07T00:14:20;11.30;;;7.32;;
23119;SDS011;11729;50.836;4.330;2023-05-07T00:16:46;13.38;;;6.50;;
23119;SDS011;11729;50.836;4.330;2023-05-07T00:19:11;11.95;;;7.03;;
23119;SDS011;11729;50.836;4.330;2023-05-07T00:21:37;11.63;;;6.70;;
23119;SDS011;11729;50.836;4.330;2023-05-07T00:24:03;12.90;;;7.20;;
23119;SDS011;11729;50.836;4.330;2023-05-07T00:26:29;10.82;;;6.95;;
23119;SDS011;11729;50.836;4.330;2023-05-07T00:28:54;11.98;;;6.95;;
23119;SDS011;11729;50.836;4.330;2023-05-07T00:31:20;9.55;;;6.63;;
23119;SDS011;11729;50.836;4.330;2023-05-07T00:33:46;11.30;;;6.45;;
23119;SDS011;11729;50.836;4.330;2023-05-07T00:36:11;12.93;;;6.70;;
23119;SDS011;11729;50.836;4.330;2023-05-07T00:38:37;12.43;;;6.93;;
23119;SDS011;11729;50.836;4.330;2023-05-07T00:41:03;10.45;;;7.15;;
23119;SDS011;11729;50.836;4.330;2023-05-07T00:43:28;12.10;;;6.88;;
23119;SDS011;11729;50.836;4.330;2023-05-07T00:45:54;9.40;;;6.57;;
23119;SDS011;11729;50.836;4.330;2023-05-07T00:48:20;16.48;;;6.78;;
23119;SDS011;11729;50.836;4.330;2023-05-07T00:50:46;9.23;;;6.57;;
23119;SDS011;11729;50.836;4.330;2023-05-07T00:53:13;10.32;;;6.70;;
23119;SDS011;11729;50.836;4.330;2023-05-07T00:55:39;12.57;;;6.88;;
23119;SDS011;11729;50.836;4.330;2023-05-07T00:58:05;11.30;;;6.55;;
23119;SDS011;11729;50.836;4.330;2023-05-07T01:00:31;9.68;;;6.68;;
23119;SDS011;11729;50.836;4.330;2023-05-07T01:02:57;11.65;;;6.80;;
23119;SDS011;11729;50.836;4.330;2023-05-07T01:05:23;13.00;;;6.93;;
23119;SDS011;11729;50.836;4.330;2023-05-07T01:07:51;8.65;;;6.25;;
23119;SDS011;11729;50.836;4.330;2023-05-07T01:10:19;8.70;;;6.50;;
23119;SDS011;11729;50.836;4.330;2023-05-07T01:12:45;12.73;;;6.70;;
23119;SDS011;11729;50.836;4.330;2023-05-07T01:15:15;12.57;;;6.43;;
23119;SDS011;11729;50.836;4.330;2023-05-07T01:17:41;11.20;;;6.57;;
23119;SDS011;11729;50.836;4.330;2023-05-07T01:20:10;13.13;;;6.68;;
23119;SDS011;11729;50.836;4.330;2023-05-07T01:22:37;12.40;;;6.45;;
23119;SDS011;11729;50.836;4.330;2023-05-07T01:25:04;12.52;;;6.72;;
23119;SDS011;11729;50.836;4.330;2023-05-07T01:27:30;10.52;;;7.03;;
23119;SDS011;11729;50.836;4.330;2023-05-07T01:29:58;12.60;;;6.70;;
23119;SDS011;11729;50.836;4.330;2023-05-07T01:32:34;9.70;;;6.70;;
23119;SDS011;11729;50.836;4.330;2023-05-07T01:35:05;9.35;;;7.00;;
23119;SDS011;11729;50.836;4.330;2023-05-07T01:37:35;8.45;;;6.57;;
23119;SDS011;11729;50.836;4.330;2023-05-07T01:40:05;11.13;;;6.75;;
23119;SDS011;11729;50.836;4.330;2023-05-07T01:42:32;12.35;;;7.10;;
23119;SDS011;11729;50.836;4.330;2023-05-07T01:44:58;10.68;;;6.78;;
23119;SDS011;11729;50.836;4.330;2023-05-07T01:47:24;14.45;;;7.05;;
23119;SDS011;11729;50.836;4.330;2023-05-07T01:49:50;10.98;;;6.75;;
23119;SDS011;11729;50.836;4.330;2023-05-07T01:52:16;14.15;;;6.95;;
23119;SDS011;11729;50.836;4.330;2023-05-07T01:54:42;10.27;;;6.60;;
23119;SDS011;11729;50.836;4.330;2023-05-07T01:57:08;13.95;;;6.82;;
23119;SDS011;11729;50.836;4.330;2023-05-07T01:59:33;14.50;;;7.15;;
23119;SDS011;11729;50.836;4.330;2023-05-07T02:01:59;11.25;;;7.15;;
23119;SDS011;11729;50.836;4.330;2023-05-07T02:04:25;10.48;;;6.78;;
23119;SDS011;11729;50.836;4.330;2023-05-07T02:06:51;10.68;;;7.13;;
23119;SDS011;11729;50.836;4.330;2023-05-07T02:09:17;12.05;;;6.82;;
23119;SDS011;11729;50.836;4.330;2023-05-07T02:11:43;12.35;;;7.63;;
23119;SDS011;11729;50.836;4.330;2023-05-07T02:14:10;11.35;;;7.55;;
23119;SDS011;11729;50.836;4.330;2023-05-07T02:16:36;12.18;;;6.90;;
23119;SDS011;11729;50.836;4.330;2023-05-07T02:19:01;11.40;;;6.70;;
23119;SDS011;11729;50.836;4.330;2023-05-07T02:21:27;12.73;;;7.03;;
23119;SDS011;11729;50.836;4.330;2023-05-07T02:23:53;13.60;;;6.68;;
23119;SDS011;11729;50.836;4.330;2023-05-07T02:26:19;12.73;;;6.55;;
23119;SDS011;11729;50.836;4.330;2023-05-07T02:28:44;12.50;;;6.90;;
23119;SDS011;11729;50.836;4.330;2023-05-07T02:31:10;14.98;;;6.90;;
23119;SDS011;11729;50.836;4.330;2023-05-07T02:33:35;11.90;;;7.10;;
23119;SDS011;11729;50.836;4.330;2023-05-07T02:36:10;13.20;;;7.40;;
23119;SDS011;11729;50.836;4.330;2023-05-07T02:38:37;12.02;;;7.30;;
23119;SDS011;11729;50.836;4.330;2023-05-07T02:41:03;14.00;;;7.57;;
23119;SDS011;11729;50.836;4.330;2023-05-07T02:43:29;16.52;;;7.18;;
23119;SDS011;11729;50.836;4.330;2023-05-07T02:46:04;11.93;;;8.00;;
23119;SDS011;11729;50.836;4.330;2023-05-07T02:48:30;15.70;;;7.88;;
23119;SDS011;11729;50.836;4.330;2023-05-07T02:50:57;12.68;;;7.68;;
23119;SDS011;11729;50.836;4.330;2023-05-07T02:53:23;12.27;;;7.82;;
23119;SDS011;11729;50.836;4.330;2023-05-07T02:55:51;12.23;;;7.32;;
23119;SDS011;11729;50.836;4.330;2023-05-07T02:58:18;16.57;;;7.40;;
23119;SDS011;11729;50.836;4.330;2023-05-07T03:00:43;11.55;;;7.53;;
23119;SDS011;11729;50.836;4.330;2023-05-07T03:03:09;13.27;;;7.50;;
23119;SDS011;11729;50.836;4.330;2023-05-07T03:05:35;11.60;;;7.18;;
23119;SDS011;11729;50.836;4.330;2023-05-07T03:08:01;15.38;;;8.15;;
23119;SDS011;11729;50.836;4.330;2023-05-07T03:10:27;12.50;;;7.63;;
23119;SDS011;11729;50.836;4.330;2023-05-07T03:12:53;16.92;;;8.38;;
23119;SDS011;11729;50.836;4.330;2023-05-07T03:15:21;10.43;;;7.22;;
23119;SDS011;11729;50.836;4.330;2023-05-07T03:17:48;14.90;;;7.65;;
23119;SDS011;11729;50.836;4.330;2023-05-07T03:20:14;13.82;;;7.95;;
23119;SDS011;11729;50.836;4.330;2023-05-07T03:22:39;11.27;;;7.93;;
23119;SDS011;11729;50.836;4.330;2023-05-07T03:25:06;10.98;;;7.72;;
23119;SDS011;11729;50.836;4.330;2023-05-07T03:27:32;15.38;;;8.27;;
23119;SDS011;11729;50.836;4.330;2023-05-07T03:29:58;13.15;;;7.82;;
23119;SDS011;11729;50.836;4.330;2023-05-07T03:32:25;19.10;;;8.40;;
23119;SDS011;11729;50.836;4.330;2023-05-07T03:34:50;10.95;;;8.13;;
23119;SDS011;11729;50.836;4.330;2023-05-07T03:37:16;17.83;;;8.35;;
23119;SDS011;11729;50.836;4.330;2023-05-07T03:39:43;14.07;;;7.70;;
23119;SDS011;11729;50.836;4.330;2023-05-07T03:42:08;16.52;;;8.20;;
23119;SDS011;11729;50.836;4.330;2023-05-07T03:44:35;14.20;;;8.18;;
23119;SDS011;11729;50.836;4.330;2023-05-07T03:47:01;14.82;;;8.07;;
23119;SDS011;11729;50.836;4.330;2023-05-07T03:49:28;13.60;;;8.15;;
23119;SDS011;11729;50.836;4.330;2023-05-07T03:51:53;14.23;;;7.60;;
23119;SDS011;11729;50.836;4.330;2023-05-07T03:54:19;11.48;;;8.02;;
23119;SDS011;11729;50.836;4.330;2023-05-07T03:56:45;17.10;;;8.40;;
23119;SDS011;11729;50.836;4.330;2023-05-07T03:59:11;12.73;;;7.50;;
23119;SDS011;11729;50.836;4.330;2023-05-07T04:01:39;16.58;;;8.13;;
23119;SDS011;11729;50.836;4.330;2023-05-07T04:04:05;14.52;;;7.90;;
23119;SDS011;11729;50.836;4.330;2023-05-07T04:06:31;13.38;;;8.43;;
23119;SDS011;11729;50.836;4.330;2023-05-07T04:08:57;14.98;;;7.90;;
23119;SDS011;11729;50.836;4.330;2023-05-07T04:11:24;10.68;;;7.85;;
23119;SDS011;11729;50.836;4.330;2023-05-07T04:13:50;14.85;;;8.20;;
23119;SDS011;11729;50.836;4.330;2023-05-07T04:16:16;18.95;;;8.25;;
23119;SDS011;11729;50.836;4.330;2023-05-07T04:18:42;14.95;;;7.90;;
23119;SDS011;11729;50.836;4.330;2023-05-07T04:21:18;10.35;;;8.18;;
23119;SDS011;11729;50.836;4.330;2023-05-07T04:23:45;13.25;;;7.65;;
23119;SDS011;11729;50.836;4.330;2023-05-07T04:26:11;15.20;;;8.40;;
23119;SDS011;11729;50.836;4.330;2023-05-07T04:28:38;12.07;;;7.97;;
23119;SDS011;11729;50.836;4.330;2023-05-07T04:31:04;13.73;;;8.15;;
23119;SDS011;11729;50.836;4.330;2023-05-07T04:33:30;13.70;;;7.70;;
23119;SDS011;11729;50.836;4.330;2023-05-07T04:35:56;12.15;;;7.88;;
23119;SDS011;11729;50.836;4.330;2023-05-07T04:38:22;15.77;;;8.13;;
23119;SDS011;11729;50.836;4.330;2023-05-07T04:40:48;18.05;;;8.45;;
23119;SDS011;11729;50.836;4.330;2023-05-07T04:43:14;12.68;;;8.27;;
23119;SDS011;11729;50.836;4.330;2023-05-07T04:45:41;15.77;;;8.50;;
23119;SDS011;11729;50.836;4.330;2023-05-07T04:48:07;13.23;;;8.55;;
23119;SDS011;11729;50.836;4.330;2023-05-07T04:50:34;13.50;;;8.87;;
23119;SDS011;11729;50.836;4.330;2023-05-07T04:52:59;13.75;;;8.40;;
23119;SDS011;11729;50.836;4.330;2023-05-07T04:55:25;12.02;;;8.32;;
23119;SDS011;11729;50.836;4.330;2023-05-07T04:57:51;14.07;;;8.05;;
23119;SDS011;11729;50.836;4.330;2023-05-07T05:00:17;12.90;;;8.60;;
23119;SDS011;11729;50.836;4.330;2023-05-07T05:02:44;19.40;;;8.70;;
23119;SDS011;11729;50.836;4.330;2023-05-07T05:05:10;12.57;;;8.27;;
23119;SDS011;11729;50.836;4.330;2023-05-07T05:07:36;11.65;;;7.95;;
23119;SDS011;11729;50.836;4.330;2023-05-07T05:10:02;16.20;;;8.40;;
23119;SDS011;11729;50.836;4.330;2023-05-07T05:12:29;15.23;;;8.32;;
23119;SDS011;11729;50.836;4.330;2023-05-07T05:14:55;13.88;;;8.13;;
23119;SDS011;11729;50.836;4.330;2023-05-07T05:17:21;14.75;;;8.45;;
23119;SDS011;11729;50.836;4.330;2023-05-07T05:19:46;15.05;;;8.50;;
23119;SDS011;11729;50.836;4.330;2023-05-07T05:22:12;16.35;;;8.43;;
23119;SDS011;11729;50.836;4.330;2023-05-07T05:24:37;12.18;;;7.97;;
23119;SDS011;11729;50.836;4.330;2023-05-07T05:27:03;11.98;;;7.93;;
23119;SDS011;11729;50.836;4.330;2023-05-07T05:29:29;12.57;;;8.02;;
23119;SDS011;11729;50.836;4.330;2023-05-07T05:31:56;17.17;;;8.23;;
23119;SDS011;11729;50.836;4.330;2023-05-07T05:34:22;11.07;;;7.43;;
23119;SDS011;11729;50.836;4.330;2023-05-07T05:36:47;13.77;;;7.72;;
23119;SDS011;11729;50.836;4.330;2023-05-07T05:39:13;15.77;;;7.85;;
23119;SDS011;11729;50.836;4.330;2023-05-07T05:41:39;11.68;;;7.57;;
23119;SDS011;11729;50.836;4.330;2023-05-07T05:44:05;15.18;;;8.20;;
23119;SDS011;11729;50.836;4.330;2023-05-07T05:46:31;12.65;;;8.00;;
23119;SDS011;11729;50.836;4.330;2023-05-07T05:48:56;15.93;;;8.52;;
23119;SDS011;11729;50.836;4.330;2023-05-07T05:51:22;16.02;;;8.40;;
23119;SDS011;11729;50.836;4.330;2023-05-07T05:53:48;11.40;;;7.63;;
23119;SDS011;11729;50.836;4.330;2023-05-07T05:56:14;14.15;;;7.82;;
23119;SDS011;11729;50.836;4.330;2023-05-07T05:58:40;15.90;;;8.63;;
23119;SDS011;11729;50.836;4.330;2023-05-07T06:01:06;13.93;;;7.95;;
23119;SDS011;11729;50.836;4.330;2023-05-07T06:03:32;12.02;;;7.75;;
23119;SDS011;11729;50.836;4.330;2023-05-07T06:05:58;21.75;;;14.70;;
23119;SDS011;11729;50.836;4.330;2023-05-07T06:08:24;16.55;;;9.30;;
23119;SDS011;11729;50.836;4.330;2023-05-07T06:10:50;16.63;;;8.32;;
23119;SDS011;11729;50.836;4.330;2023-05-07T06:13:16;14.00;;;7.90;;
23119;SDS011;11729;50.836;4.330;2023-05-07T06:15:42;16.75;;;8.25;;
23119;SDS011;11729;50.836;4.330;2023-05-07T06:18:07;11.65;;;8.18;;
23119;SDS011;11729;50.836;4.330;2023-05-07T06:20:34;18.05;;;8.48;;
23119;SDS011;11729;50.836;4.330;2023-05-07T06:22:59;12.13;;;8.45;;
23119;SDS011;11729;50.836;4.330;2023-05-07T06:25:25;11.82;;;8.25;;
23119;SDS011;11729;50.836;4.330;2023-05-07T06:27:51;11.43;;;8.20;;
23119;SDS011;11729;50.836;4.330;2023-05-07T06:30:16;12.25;;;8.30;;
23119;SDS011;11729;50.836;4.330;2023-05-07T06:32:42;13.32;;;8.05;;
23119;SDS011;11729;50.836;4.330;2023-05-07T06:35:08;9.80;;;7.82;;
23119;SDS011;11729;50.836;4.330;2023-05-07T06:37:33;14.57;;;8.30;;
23119;SDS011;11729;50.836;4.330;2023-05-07T06:39:59;8.77;;;6.85;;
23119;SDS011;11729;50.836;4.330;2023-05-07T06:42:25;11.68;;;7.53;;
23119;SDS011;11729;50.836;4.330;2023-05-07T06:44:51;10.35;;;6.80;;
23119;SDS011;11729;50.836;4.330;2023-05-07T06:47:17;13.48;;;7.50;;
23119;SDS011;11729;50.836;4.330;2023-05-07T06:49:42;12.68;;;7.63;;
23119;SDS011;11729;50.836;4.330;2023-05-07T06:52:08;16.35;;;8.25;;
23119;SDS011;11729;50.836;4.330;2023-05-07T06:54:34;12.77;;;7.97;;
23119;SDS011;11729;50.836;4.330;2023-05-07T06:57:00;12.18;;;7.80;;
23119;SDS011;11729;50.836;4.330;2023-05-07T06:59:25;11.85;;;7.93;;
23119;SDS011;11729;50.836;4.330;2023-05-07T07:01:51;10.35;;;7.57;;
23119;SDS011;11729;50.836;4.330;2023-05-07T07:04:16;12.05;;;7.70;;
23119;SDS011;11729;50.836;4.330;2023-05-07T07:06:42;13.05;;;8.00;;
23119;SDS011;11729;50.836;4.330;2023-05-07T07:09:08;12.07;;;7.85;;
23119;SDS011;11729;50.836;4.330;2023-05-07T07:11:33;13.50;;;8.55;;
23119;SDS011;11729;50.836;4.330;2023-05-07T07:13:59;12.40;;;8.43;;
23119;SDS011;11729;50.836;4.330;2023-05-07T07:16:25;11.82;;;8.50;;
23119;SDS011;11729;50.836;4.330;2023-05-07T07:18:51;13.50;;;8.95;;
23119;SDS011;11729;50.836;4.330;2023-05-07T07:21:16;12.35;;;8.48;;
23119;SDS011;11729;50.836;4.330;2023-05-07T07:23:42;14.48;;;8.48;;
23119;SDS011;11729;50.836;4.330;2023-05-07T07:26:08;15.20;;;9.40;;
23119;SDS011;11729;50.836;4.330;2023-05-07T07:28:33;11.88;;;8.80;;
23119;SDS011;11729;50.836;4.330;2023-05-07T07:30:59;10.02;;;7.70;;
23119;SDS011;11729;50.836;4.330;2023-05-07T07:33:25;12.13;;;8.60;;
23119;SDS011;11729;50.836;4.330;2023-05-07T07:35:50;11.63;;;8.30;;
23119;SDS011;11729;50.836;4.330;2023-05-07T07:38:16;10.55;;;7.95;;
23119;SDS011;11729;50.836;4.330;2023-05-07T07:40:41;13.30;;;8.35;;
23119;SDS011;11729;50.836;4.330;2023-05-07T07:43:08;11.80;;;8.07;;
23119;SDS011;11729;50.836;4.330;2023-05-07T07:45:34;13.52;;;8.15;;
23119;SDS011;11729;50.836;4.330;2023-05-07T07:48:00;13.95;;;8.18;;
23119;SDS011;11729;50.836;4.330;2023-05-07T07:50:25;13.68;;;8.98;;
23119;SDS011;11729;50.836;4.330;2023-05-07T07:52:51;14.82;;;9.43;;
23119;SDS011;11729;50.836;4.330;2023-05-07T07:55:19;14.57;;;8.30;;
23119;SDS011;11729;50.836;4.330;2023-05-07T07:57:47;14.60;;;8.57;;
23119;SDS011;11729;50.836;4.330;2023-05-07T08:00:14;12.70;;;8.60;;
23119;SDS011;11729;50.836;4.330;2023-05-07T08:02:40;14.90;;;9.48;;
23119;SDS011;11729;50.836;4.330;2023-05-07T08:05:06;13.77;;;9.27;;
23119;SDS011;11729;50.836;4.330;2023-05-07T08:07:32;13.60;;;9.07;;
23119;SDS011;11729;50.836;4.330;2023-05-07T08:09:58;15.23;;;8.93;;
23119;SDS011;11729;50.836;4.330;2023-05-07T08:12:23;15.02;;;9.70;;
23119;SDS011;11729;50.836;4.330;2023-05-07T08:14:49;13.57;;;9.68;;
23119;SDS011;11729;50.836;4.330;2023-05-07T08:17:15;11.15;;;8.90;;
23119;SDS011;11729;50.836;4.330;2023-05-07T08:19:41;11.85;;;8.73;;
23119;SDS011;11729;50.836;4.330;2023-05-07T08:22:08;11.35;;;8.32;;
23119;SDS011;11729;50.836;4.330;2023-05-07T08:24:34;3.63;;;3.53;;
23119;SDS011;11729;50.836;4.330;2023-05-07T08:27:00;3.50;;;3.40;;
23119;SDS011;11729;50.836;4.330;2023-05-07T08:29:26;3.70;;;3.60;;
23119;SDS011;11729;50.836;4.330;2023-05-07T08:31:51;3.50;;;3.40;;
23119;SDS011;11729;50.836;4.330;2023-05-07T08:34:17;3.75;;;3.55;;
23119;SDS011;11729;50.836;4.330;2023-05-07T08:36:43;4.18;;;3.92;;
23119;SDS011;11729;50.836;4.330;2023-05-07T08:39:09;3.60;;;3.50;;
23119;SDS011;11729;50.836;4.330;2023-05-07T08:41:34;3.67;;;3.58;;
23119;SDS011;11729;50.836;4.330;2023-05-07T08:44:00;4.78;;;4.55;;
23119;SDS011;11729;50.836;4.330;2023-05-07T08:46:30;4.10;;;3.90;;
23119;SDS011;11729;50.836;4.330;2023-05-07T08:48:56;5.30;;;5.00;;
23119;SDS011;11729;50.836;4.330;2023-05-07T08:51:22;5.20;;;4.90;;
23119;SDS011;11729;50.836;4.330;2023-05-07T08:53:48;5.47;;;5.18;;
23119;SDS011;11729;50.836;4.330;2023-05-07T08:56:15;3.78;;;3.63;;
23119;SDS011;11729;50.836;4.330;2023-05-07T08:58:44;4.15;;;3.90;;
23119;SDS011;11729;50.836;4.330;2023-05-07T09:01:14;5.80;;;5.35;;
23119;SDS011;11729;50.836;4.330;2023-05-07T09:03:41;6.15;;;5.65;;
23119;SDS011;11729;50.836;4.330;2023-05-07T09:06:10;4.65;;;4.45;;
23119;SDS011;11729;50.836;4.330;2023-05-07T09:08:36;7.20;;;6.53;;
23119;SDS011;11729;50.836;4.330;2023-05-07T09:11:02;4.13;;;3.92;;
23119;SDS011;11729;50.836;4.330;2023-05-07T09:13:28;3.80;;;3.70;;
23119;SDS011;11729;50.836;4.330;2023-05-07T09:15:54;5.10;;;4.82;;
23119;SDS011;11729;50.836;4.330;2023-05-07T09:18:21;5.70;;;5.30;;
23119;SDS011;11729;50.836;4.330;2023-05-07T09:20:48;5.30;;;5.00;;
23119;SDS011;11729;50.836;4.330;2023-05-07T09:23:13;4.28;;;4.07;;
23119;SDS011;11729;50.836;4.330;2023-05-07T09:25:40;4.10;;;3.90;;
23119;SDS011;11729;50.836;4.330;2023-05-07T09:28:06;4.80;;;4.60;;
23119;SDS011;11729;50.836;4.330;2023-05-07T09:30:32;4.28;;;4.07;;
23119;SDS011;11729;50.836;4.330;2023-05-07T09:32:59;3.60;;;3.50;;
23119;SDS011;11729;50.836;4.330;2023-05-07T09:35:27;5.30;;;4.90;;
23119;SDS011;11729;50.836;4.330;2023-05-07T09:37:53;3.70;;;3.60;;
23119;SDS011;11729;50.836;4.330;2023-05-07T09:40:21;6.13;;;5.73;;
23119;SDS011;11729;50.836;4.330;2023-05-07T09:42:51;3.60;;;3.50;;
23119;SDS011;11729;50.836;4.330;2023-05-07T09:45:26;3.60;;;3.50;;
23119;SDS011;11729;50.836;4.330;2023-05-07T09:47:56;3.92;;;3.72;;
23119;SDS011;11729;50.836;4.330;2023-05-07T09:50:27;3.92;;;3.75;;
23119;SDS011;11729;50.836;4.330;2023-05-07T09:52:54;3.60;;;3.50;;
23119;SDS011;11729;50.836;4.330;2023-05-07T09:55:20;3.60;;;3.50;;
23119;SDS011;11729;50.836;4.330;2023-05-07T09:57:50;4.80;;;4.50;;
23119;SDS011;11729;50.836;4.330;2023-05-07T10:00:18;4.05;;;3.85;;
23119;SDS011;11729;50.836;4.330;2023-05-07T10:02:45;4.30;;;4.10;;
23119;SDS011;11729;50.836;4.330;2023-05-07T10:05:17;3.58;;;3.47;;
23119;SDS011;11729;50.836;4.330;2023-05-07T10:10:12;3.60;;;3.50;;
23119;SDS011;11729;50.836;4.330;2023-05-07T10:12:39;3.83;;;3.65;;
23119;SDS011;11729;50.836;4.330;2023-05-07T10:15:06;3.95;;;3.75;;
23119;SDS011;11729;50.836;4.330;2023-05-07T10:17:36;3.75;;;3.60;;
23119;SDS011;11729;50.836;4.330;2023-05-07T10:20:03;3.50;;;3.40;;
23119;SDS011;11729;50.836;4.330;2023-05-07T10:23:04;4.20;;;3.83;;
23119;SDS011;11729;50.836;4.330;2023-05-07T10:25:29;3.60;;;3.50;;
23119;SDS011;11729;50.836;4.330;2023-05-07T10:27:57;3.40;;;3.30;;
23119;SDS011;11729;50.836;4.330;2023-05-07T10:30:35;3.50;;;3.40;;
23119;SDS011;11729;50.836;4.330;2023-05-07T10:33:23;3.50;;;3.40;;
23119;SDS011;11729;50.836;4.330;2023-05-07T10:35:51;3.60;;;3.50;;
23119;SDS011;11729;50.836;4.330;2023-05-07T10:38:25;3.60;;;3.50;;
23119;SDS011;11729;50.836;4.330;2023-05-07T10:40:51;3.90;;;3.70;;
23119;SDS011;11729;50.836;4.330;2023-05-07T10:43:17;4.45;;;4.25;;
23119;SDS011;11729;50.836;4.330;2023-05-07T10:45:43;3.50;;;3.40;;
23119;SDS011;11729;50.836;4.330;2023-05-07T10:48:29;3.53;;;3.42;;
23119;SDS011;11729;50.836;4.330;2023-05-07T10:56:36;3.55;;;3.45;;
23119;SDS011;11729;50.836;4.330;2023-05-07T11:04:28;3.50;;;3.40;;
23119;SDS011;11729;50.836;4.330;2023-05-07T11:15:09;3.67;;;3.58;;
23119;SDS011;11729;50.836;4.330;2023-05-07T11:20:20;3.70;;;3.60;;
23119;SDS011;11729;50.836;4.330;2023-05-07T11:23:06;3.50;;;3.40;;
23119;SDS011;11729;50.836;4.330;2023-05-07T11:25:32;3.78;;;3.67;;
23119;SDS011;11729;50.836;4.330;2023-05-07T11:28:04;4.53;;;4.22;;
23119;SDS011;11729;50.836;4.330;2023-05-07T11:30:31;3.60;;;3.50;;
23119;SDS011;11729;50.836;4.330;2023-05-07T11:32:57;3.50;;;3.40;;
23119;SDS011;11729;50.836;4.330;2023-05-07T11:35:23;3.55;;;3.45;;
23119;SDS011;11729;50.836;4.330;2023-05-07T11:37:49;3.50;;;3.40;;
23119;SDS011;11729;50.836;4.330;2023-05-07T11:40:22;3.45;;;3.35;;
23119;SDS011;11729;50.836;4.330;2023-05-07T11:42:48;3.40;;;3.30;;
23119;SDS011;11729;50.836;4.330;2023-05-07T11:45:14;3.40;;;3.30;;
23119;SDS011;11729;50.836;4.330;2023-05-07T11:47:50;14.32;;;5.55;;
23119;SDS011;11729;50.836;4.330;2023-05-07T11:50:15;3.38;;;3.28;;
23119;SDS011;11729;50.836;4.330;2023-05-07T11:52:49;3.40;;;3.30;;
23119;SDS011;11729;50.836;4.330;2023-05-07T11:55:17;4.07;;;3.88;;
23119;SDS011;11729;50.836;4.330;2023-05-07T11:57:44;3.58;;;3.47;;
23119;SDS011;11729;50.836;4.330;2023-05-07T12:00:10;3.50;;;3.40;;
23119;SDS011;11729;50.836;4.330;2023-05-07T12:02:36;3.40;;;3.30;;
23119;SDS011;11729;50.836;4.330;2023-05-07T12:05:01;3.50;;;3.40;;
23119;SDS011;11729;50.836;4.330;2023-05-07T12:07:27;3.47;;;3.38;;
23119;SDS011;11729;50.836;4.330;2023-05-07T12:09:53;3.45;;;3.35;;
23119;SDS011;11729;50.836;4.330;2023-05-07T12:12:19;3.60;;;3.50;;
23119;SDS011;11729;50.836;4.330;2023-05-07T12:14:45;3.90;;;3.70;;
23119;SDS011;11729;50.836;4.330;2023-05-07T12:17:11;3.60;;;3.50;;
23119;SDS011;11729;50.836;4.330;2023-05-07T12:19:39;3.60;;;3.50;;
23119;SDS011;11729;50.836;4.330;2023-05-07T12:22:07;3.60;;;3.50;;
23119;SDS011;11729;50.836;4.330;2023-05-07T12:27:28;4.70;;;4.40;;
23119;SDS011;11729;50.836;4.330;2023-05-07T12:29:56;3.60;;;3.50;;
23119;SDS011;11729;50.836;4.330;2023-05-07T12:32:23;3.50;;;3.40;;
23119;SDS011;11729;50.836;4.330;2023-05-07T12:34:51;4.18;;;3.97;;
23119;SDS011;11729;50.836;4.330;2023-05-07T12:37:22;3.90;;;3.70;;
23119;SDS011;11729;50.836;4.330;2023-05-07T12:40:03;3.45;;;3.35;;
23119;SDS011;11729;50.836;4.330;2023-05-07T12:42:37;3.55;;;3.45;;
23119;SDS011;11729;50.836;4.330;2023-05-07T12:45:11;3.40;;;3.30;;
23119;SDS011;11729;50.836;4.330;2023-05-07T12:50:12;3.50;;;3.40;;
23119;SDS011;11729;50.836;4.330;2023-05-07T12:52:39;3.65;;;3.55;;
23119;SDS011;11729;50.836;4.330;2023-05-07T12:55:05;3.42;;;3.33;;
23119;SDS011;11729;50.836;4.330;2023-05-07T12:57:38;3.60;;;3.50;;
23119;SDS011;11729;50.836;4.330;2023-05-07T13:00:05;4.13;;;3.92;;
23119;SDS011;11729;50.836;4.330;2023-05-07T13:02:32;3.60;;;3.50;;
23119;SDS011;11729;50.836;4.330;2023-05-07T13:04:59;3.50;;;3.40;;
23119;SDS011;11729;50.836;4.330;2023-05-07T13:07:25;3.50;;;3.40;;
23119;SDS011;11729;50.836;4.330;2023-05-07T13:09:50;4.25;;;4.05;;
23119;SDS011;11729;50.836;4.330;2023-05-07T13:12:16;3.85;;;3.65;;
23119;SDS011;11729;50.836;4.330;2023-05-07T13:14:42;3.47;;;3.38;;
23119;SDS011;11729;50.836;4.330;2023-05-07T13:17:07;3.50;;;3.40;;
23119;SDS011;11729;50.836;4.330;2023-05-07T13:19:34;3.63;;;3.53;;
23119;SDS011;11729;50.836;4.330;2023-05-07T13:22:00;4.65;;;4.43;;
23119;SDS011;11729;50.836;4.330;2023-05-07T13:24:25;3.70;;;3.60;;
23119;SDS011;11729;50.836;4.330;2023-05-07T13:26:51;3.65;;;3.55;;
23119;SDS011;11729;50.836;4.330;2023-05-07T13:29:16;3.85;;;3.70;;
23119;SDS011;11729;50.836;4.330;2023-05-07T13:31:42;3.60;;;3.50;;
23119;SDS011;11729;50.836;4.330;2023-05-07T13:34:09;3.75;;;3.63;;
23119;SDS011;11729;50.836;4.330;2023-05-07T13:36:35;3.92;;;3.72;;
23119;SDS011;11729;50.836;4.330;2023-05-07T13:39:04;3.70;;;3.60;;
23119;SDS011;11729;50.836;4.330;2023-05-07T13:41:31;3.70;;;3.60;;
23119;SDS011;11729;50.836;4.330;2023-05-07T13:43:56;3.83;;;3.67;;
23119;SDS011;11729;50.836;4.330;2023-05-07T13:46:22;4.30;;;4.10;;
23119;SDS011;11729;50.836;4.330;2023-05-07T13:48:48;3.70;;;3.60;;
23119;SDS011;11729;50.836;4.330;2023-05-07T13:51:13;6.90;;;4.57;;
23119;SDS011;11729;50.836;4.330;2023-05-07T13:53:39;3.70;;;3.60;;
23119;SDS011;11729;50.836;4.330;2023-05-07T13:56:05;3.90;;;3.70;;
23119;SDS011;11729;50.836;4.330;2023-05-07T13:58:31;4.70;;;4.50;;
23119;SDS011;11729;50.836;4.330;2023-05-07T14:00:56;4.00;;;3.80;;
23119;SDS011;11729;50.836;4.330;2023-05-07T14:03:22;3.75;;;3.65;;
23119;SDS011;11729;50.836;4.330;2023-05-07T14:05:47;3.70;;;3.60;;
23119;SDS011;11729;50.836;4.330;2023-05-07T14:08:13;3.95;;;3.75;;
23119;SDS011;11729;50.836;4.330;2023-05-07T14:10:39;3.90;;;3.70;;
23119;SDS011;11729;50.836;4.330;2023-05-07T14:13:05;3.80;;;3.67;;
23119;SDS011;11729;50.836;4.330;2023-05-07T14:15:31;3.90;;;3.70;;
23119;SDS011;11729;50.836;4.330;2023-05-07T14:17:59;3.70;;;3.60;;
23119;SDS011;11729;50.836;4.330;2023-05-07T14:20:25;3.75;;;3.60;;
23119;SDS011;11729;50.836;4.330;2023-05-07T14:22:51;3.60;;;3.50;;
23119;SDS011;11729;50.836;4.330;2023-05-07T14:25:17;3.50;;;3.40;;
23119;SDS011;11729;50.836;4.330;2023-05-07T14:27:42;3.50;;;3.40;;
23119;SDS011;11729;50.836;4.330;2023-05-07T14:30:08;3.85;;;3.67;;
23119;SDS011;11729;50.836;4.330;2023-05-07T14:32:34;3.60;;;3.50;;
23119;SDS011;11729;50.836;4.330;2023-05-07T14:35:00;4.50;;;4.03;;
23119;SDS011;11729;50.836;4.330;2023-05-07T14:37:26;4.30;;;4.10;;
23119;SDS011;11729;50.836;4.330;2023-05-07T14:39:52;3.83;;;3.65;;
23119;SDS011;11729;50.836;4.330;2023-05-07T14:42:17;3.50;;;3.40;;
23119;SDS011;11729;50.836;4.330;2023-05-07T14:44:43;3.97;;;3.78;;
23119;SDS011;11729;50.836;4.330;2023-05-07T14:47:10;3.42;;;3.33;;
23119;SDS011;11729;50.836;4.330;2023-05-07T14:49:36;3.88;;;3.70;;
23119;SDS011;11729;50.836;4.330;2023-05-07T14:52:01;4.43;;;4.22;;
23119;SDS011;11729;50.836;4.330;2023-05-07T14:54:27;3.80;;;3.60;;
23119;SDS011;11729;50.836;4.330;2023-05-07T14:56:53;4.00;;;3.80;;
23119;SDS011;11729;50.836;4.330;2023-05-07T14:59:20;3.83;;;3.70;;
23119;SDS011;11729;50.836;4.330;2023-05-07T15:01:46;3.70;;;3.60;;
23119;SDS011;11729;50.836;4.330;2023-05-07T15:04:12;3.85;;;3.70;;
23119;SDS011;11729;50.836;4.330;2023-05-07T15:06:38;4.10;;;3.90;;
23119;SDS011;11729;50.836;4.330;2023-05-07T15:09:04;4.00;;;3.80;;